Cape Canaveral, Florida
Current Conditions -  °F | °C
As of 8:58 PM on Sunday 25 Jan 2015 (Local Time) from KXMR Reporting Station
Clear Clear  
Wind Chill: 53°   Ceiling: Unl
Heat Index: 53°   Visibility: 10mi
Dew Point: 42°   Wind: 6mph
Humidity: 65%   Direction: 210°SSW
Pressure: 30"   Gusts: NA
Location:  28.38°N, 80.6°W
Report Text: KXMR 260158Z AUTO 21005KT 10SM CLR 12/05 A3000 RMK AO2 SLP162 T01170054
Loading
Personal Weather Stations






























Interactive Weather Map New forecast layout! Learn more

10-Day Weather Forecast

Advertisements
Track Severe Weather on mobile